sensor_id;sensor_type;location;lat;lon;timestamp;P1;durP1;ratioP1;P2;durP2;ratioP2
25247;SDS011;13191;47.472;11.214;2022-12-18T00:01:37;5.55;;;2.35;;
25247;SDS011;13191;47.472;11.214;2022-12-18T00:04:03;4.55;;;2.17;;
25247;SDS011;13191;47.472;11.214;2022-12-18T00:06:30;2.28;;;1.40;;
25247;SDS011;13191;47.472;11.214;2022-12-18T00:08:57;2.10;;;1.33;;
25247;SDS011;13191;47.472;11.214;2022-12-18T00:11:25;6.93;;;1.77;;
25247;SDS011;13191;47.472;11.214;2022-12-18T00:13:53;5.55;;;2.53;;
25247;SDS011;13191;47.472;11.214;2022-12-18T00:16:20;2.45;;;2.00;;
25247;SDS011;13191;47.472;11.214;2022-12-18T00:18:48;4.75;;;2.63;;
25247;SDS011;13191;47.472;11.214;2022-12-18T00:21:14;2.00;;;1.48;;
25247;SDS011;13191;47.472;11.214;2022-12-18T00:23:41;3.50;;;1.83;;
25247;SDS011;13191;47.472;11.214;2022-12-18T00:26:10;4.65;;;2.70;;
25247;SDS011;13191;47.472;11.214;2022-12-18T00:28:37;4.40;;;1.90;;
25247;SDS011;13191;47.472;11.214;2022-12-18T00:31:04;5.85;;;1.95;;
25247;SDS011;13191;47.472;11.214;2022-12-18T00:33:31;3.40;;;1.90;;
25247;SDS011;13191;47.472;11.214;2022-12-18T00:36:16;4.97;;;1.80;;
25247;SDS011;13191;47.472;11.214;2022-12-18T00:38:47;7.60;;;2.35;;
25247;SDS011;13191;47.472;11.214;2022-12-18T00:41:14;4.35;;;2.15;;
25247;SDS011;13191;47.472;11.214;2022-12-18T00:44:03;2.93;;;1.80;;
25247;SDS011;13191;47.472;11.214;2022-12-18T00:46:30;7.43;;;2.13;;
25247;SDS011;13191;47.472;11.214;2022-12-18T00:48:56;5.13;;;2.42;;
25247;SDS011;13191;47.472;11.214;2022-12-18T00:51:22;4.55;;;2.15;;
25247;SDS011;13191;47.472;11.214;2022-12-18T00:53:49;4.57;;;1.92;;
25247;SDS011;13191;47.472;11.214;2022-12-18T00:56:14;5.00;;;1.90;;
25247;SDS011;13191;47.472;11.214;2022-12-18T00:58:40;5.72;;;1.90;;
25247;SDS011;13191;47.472;11.214;2022-12-18T01:01:05;4.38;;;2.17;;
25247;SDS011;13191;47.472;11.214;2022-12-18T01:03:32;4.10;;;1.92;;
25247;SDS011;13191;47.472;11.214;2022-12-18T01:05:57;3.35;;;1.77;;
25247;SDS011;13191;47.472;11.214;2022-12-18T01:08:23;7.40;;;3.83;;
25247;SDS011;13191;47.472;11.214;2022-12-18T01:10:49;5.13;;;2.15;;
25247;SDS011;13191;47.472;11.214;2022-12-18T01:13:14;4.57;;;1.38;;
25247;SDS011;13191;47.472;11.214;2022-12-18T01:15:40;6.72;;;1.88;;
25247;SDS011;13191;47.472;11.214;2022-12-18T01:18:12;8.63;;;3.25;;
25247;SDS011;13191;47.472;11.214;2022-12-18T01:20:38;6.22;;;3.20;;
25247;SDS011;13191;47.472;11.214;2022-12-18T01:23:03;3.65;;;1.35;;
25247;SDS011;13191;47.472;11.214;2022-12-18T01:25:29;6.40;;;2.42;;
25247;SDS011;13191;47.472;11.214;2022-12-18T01:27:54;2.83;;;1.90;;
25247;SDS011;13191;47.472;11.214;2022-12-18T01:30:20;2.53;;;1.48;;
25247;SDS011;13191;47.472;11.214;2022-12-18T01:32:45;8.18;;;1.83;;
25247;SDS011;13191;47.472;11.214;2022-12-18T01:35:11;4.30;;;2.00;;
25247;SDS011;13191;47.472;11.214;2022-12-18T01:37:37;3.58;;;1.50;;
25247;SDS011;13191;47.472;11.214;2022-12-18T01:40:02;5.18;;;2.05;;
25247;SDS011;13191;47.472;11.214;2022-12-18T01:42:28;7.13;;;3.03;;
25247;SDS011;13191;47.472;11.214;2022-12-18T01:47:42;4.75;;;2.53;;
25247;SDS011;13191;47.472;11.214;2022-12-18T01:52:54;3.47;;;2.67;;
25247;SDS011;13191;47.472;11.214;2022-12-18T01:55:28;1.77;;;1.20;;
25247;SDS011;13191;47.472;11.214;2022-12-18T01:57:56;2.38;;;1.67;;
25247;SDS011;13191;47.472;11.214;2022-12-18T02:00:24;4.43;;;1.95;;
25247;SDS011;13191;47.472;11.214;2022-12-18T02:02:51;2.00;;;1.42;;
25247;SDS011;13191;47.472;11.214;2022-12-18T02:08:20;9.43;;;2.35;;
25247;SDS011;13191;47.472;11.214;2022-12-18T02:13:32;5.35;;;2.30;;
25247;SDS011;13191;47.472;11.214;2022-12-18T02:18:44;5.13;;;2.58;;
25247;SDS011;13191;47.472;11.214;2022-12-18T02:21:28;4.60;;;2.15;;
25247;SDS011;13191;47.472;11.214;2022-12-18T02:27:05;4.30;;;2.10;;
25247;SDS011;13191;47.472;11.214;2022-12-18T02:29:42;3.35;;;1.98;;
25247;SDS011;13191;47.472;11.214;2022-12-18T02:32:15;5.03;;;2.30;;
25247;SDS011;13191;47.472;11.214;2022-12-18T02:34:44;5.47;;;1.83;;
25247;SDS011;13191;47.472;11.214;2022-12-18T02:37:12;7.50;;;2.40;;
25247;SDS011;13191;47.472;11.214;2022-12-18T02:39:41;4.47;;;2.13;;
25247;SDS011;13191;47.472;11.214;2022-12-18T02:42:09;6.53;;;1.85;;
25247;SDS011;13191;47.472;11.214;2022-12-18T02:44:42;3.97;;;2.50;;
25247;SDS011;13191;47.472;11.214;2022-12-18T02:47:10;3.58;;;1.92;;
25247;SDS011;13191;47.472;11.214;2022-12-18T03:00:48;2.65;;;1.52;;
25247;SDS011;13191;47.472;11.214;2022-12-18T03:03:12;3.83;;;2.15;;
25247;SDS011;13191;47.472;11.214;2022-12-18T03:05:51;3.38;;;1.38;;
25247;SDS011;13191;47.472;11.214;2022-12-18T03:08:41;1.38;;;1.25;;
25247;SDS011;13191;47.472;11.214;2022-12-18T03:11:10;9.13;;;2.10;;
25247;SDS011;13191;47.472;11.214;2022-12-18T03:13:42;1.75;;;1.33;;
25247;SDS011;13191;47.472;11.214;2022-12-18T03:16:15;6.13;;;2.03;;
25247;SDS011;13191;47.472;11.214;2022-12-18T03:21:52;5.50;;;2.22;;
25247;SDS011;13191;47.472;11.214;2022-12-18T03:24:20;1.27;;;0.85;;
25247;SDS011;13191;47.472;11.214;2022-12-18T03:26:49;2.67;;;2.38;;
25247;SDS011;13191;47.472;11.214;2022-12-18T03:29:22;4.85;;;2.00;;
25247;SDS011;13191;47.472;11.214;2022-12-18T03:31:53;6.30;;;2.05;;
25247;SDS011;13191;47.472;11.214;2022-12-18T03:34:23;3.10;;;1.75;;
25247;SDS011;13191;47.472;11.214;2022-12-18T03:36:58;2.92;;;1.92;;
25247;SDS011;13191;47.472;11.214;2022-12-18T03:39:24;1.88;;;1.00;;
25247;SDS011;13191;47.472;11.214;2022-12-18T03:52:03;3.65;;;1.60;;
25247;SDS011;13191;47.472;11.214;2022-12-18T03:54:38;2.80;;;1.45;;
25247;SDS011;13191;47.472;11.214;2022-12-18T03:57:07;4.32;;;1.60;;
25247;SDS011;13191;47.472;11.214;2022-12-18T03:59:38;4.07;;;1.92;;
25247;SDS011;13191;47.472;11.214;2022-12-18T04:02:05;2.17;;;1.67;;
25247;SDS011;13191;47.472;11.214;2022-12-18T04:04:33;4.97;;;2.47;;
25247;SDS011;13191;47.472;11.214;2022-12-18T04:07:00;2.78;;;1.45;;
25247;SDS011;13191;47.472;11.214;2022-12-18T04:09:26;4.28;;;2.45;;
25247;SDS011;13191;47.472;11.214;2022-12-18T04:11:53;1.33;;;0.85;;
25247;SDS011;13191;47.472;11.214;2022-12-18T04:14:19;5.75;;;2.35;;
25247;SDS011;13191;47.472;11.214;2022-12-18T04:16:45;2.10;;;1.65;;
25247;SDS011;13191;47.472;11.214;2022-12-18T04:19:10;3.65;;;1.85;;
25247;SDS011;13191;47.472;11.214;2022-12-18T04:21:36;2.28;;;1.38;;
25247;SDS011;13191;47.472;11.214;2022-12-18T04:24:02;2.83;;;1.00;;
25247;SDS011;13191;47.472;11.214;2022-12-18T04:26:27;2.88;;;2.05;;
25247;SDS011;13191;47.472;11.214;2022-12-18T04:28:53;2.20;;;1.38;;
25247;SDS011;13191;47.472;11.214;2022-12-18T04:31:19;4.60;;;2.20;;
25247;SDS011;13191;47.472;11.214;2022-12-18T04:33:44;3.33;;;1.67;;
25247;SDS011;13191;47.472;11.214;2022-12-18T04:36:10;5.05;;;2.13;;
25247;SDS011;13191;47.472;11.214;2022-12-18T04:38:37;4.40;;;1.83;;
25247;SDS011;13191;47.472;11.214;2022-12-18T04:41:03;4.53;;;2.13;;
25247;SDS011;13191;47.472;11.214;2022-12-18T04:43:29;3.03;;;1.27;;
25247;SDS011;13191;47.472;11.214;2022-12-18T04:46:01;2.20;;;1.27;;
25247;SDS011;13191;47.472;11.214;2022-12-18T04:48:30;1.73;;;1.38;;
25247;SDS011;13191;47.472;11.214;2022-12-18T04:50:56;4.10;;;3.47;;
25247;SDS011;13191;47.472;11.214;2022-12-18T04:53:21;8.05;;;1.60;;
25247;SDS011;13191;47.472;11.214;2022-12-18T04:55:47;5.03;;;2.15;;
25247;SDS011;13191;47.472;11.214;2022-12-18T04:58:12;4.03;;;1.70;;
25247;SDS011;13191;47.472;11.214;2022-12-18T05:00:38;4.55;;;1.50;;
25247;SDS011;13191;47.472;11.214;2022-12-18T05:03:04;1.80;;;1.33;;
25247;SDS011;13191;47.472;11.214;2022-12-18T05:05:29;2.50;;;1.65;;
25247;SDS011;13191;47.472;11.214;2022-12-18T05:07:55;4.88;;;1.27;;
25247;SDS011;13191;47.472;11.214;2022-12-18T05:10:21;4.05;;;1.88;;
25247;SDS011;13191;47.472;11.214;2022-12-18T05:12:47;2.60;;;1.08;;
25247;SDS011;13191;47.472;11.214;2022-12-18T05:15:31;4.18;;;1.90;;
25247;SDS011;13191;47.472;11.214;2022-12-18T05:17:58;1.63;;;1.10;;
25247;SDS011;13191;47.472;11.214;2022-12-18T05:20:24;3.97;;;1.02;;
25247;SDS011;13191;47.472;11.214;2022-12-18T05:22:50;1.60;;;1.13;;
25247;SDS011;13191;47.472;11.214;2022-12-18T05:25:16;2.28;;;1.58;;
25247;SDS011;13191;47.472;11.214;2022-12-18T05:27:42;4.18;;;1.92;;
25247;SDS011;13191;47.472;11.214;2022-12-18T05:30:08;2.08;;;1.02;;
25247;SDS011;13191;47.472;11.214;2022-12-18T05:32:34;2.78;;;1.70;;
25247;SDS011;13191;47.472;11.214;2022-12-18T05:35:00;3.30;;;1.35;;
25247;SDS011;13191;47.472;11.214;2022-12-18T05:37:26;1.83;;;1.25;;
25247;SDS011;13191;47.472;11.214;2022-12-18T05:39:51;4.20;;;1.50;;
25247;SDS011;13191;47.472;11.214;2022-12-18T05:42:17;2.53;;;1.40;;
25247;SDS011;13191;47.472;11.214;2022-12-18T05:44:43;3.33;;;1.35;;
25247;SDS011;13191;47.472;11.214;2022-12-18T05:47:09;1.27;;;1.15;;
25247;SDS011;13191;47.472;11.214;2022-12-18T05:49:34;2.72;;;1.20;;
25247;SDS011;13191;47.472;11.214;2022-12-18T05:52:00;4.95;;;1.73;;
25247;SDS011;13191;47.472;11.214;2022-12-18T05:54:29;2.30;;;1.45;;
25247;SDS011;13191;47.472;11.214;2022-12-18T05:56:55;1.10;;;1.00;;
25247;SDS011;13191;47.472;11.214;2022-12-18T05:59:21;1.58;;;1.10;;
25247;SDS011;13191;47.472;11.214;2022-12-18T06:01:48;1.17;;;0.80;;
25247;SDS011;13191;47.472;11.214;2022-12-18T06:04:14;1.95;;;1.60;;
25247;SDS011;13191;47.472;11.214;2022-12-18T06:06:39;1.60;;;1.17;;
25247;SDS011;13191;47.472;11.214;2022-12-18T06:09:05;1.35;;;0.93;;
25247;SDS011;13191;47.472;11.214;2022-12-18T06:11:35;0.73;;;0.70;;
25247;SDS011;13191;47.472;11.214;2022-12-18T06:14:01;1.08;;;0.98;;
25247;SDS011;13191;47.472;11.214;2022-12-18T06:16:28;3.33;;;1.67;;
25247;SDS011;13191;47.472;11.214;2022-12-18T06:18:58;1.80;;;1.50;;
25247;SDS011;13191;47.472;11.214;2022-12-18T06:21:25;3.60;;;1.23;;
25247;SDS011;13191;47.472;11.214;2022-12-18T06:23:51;1.02;;;0.85;;
25247;SDS011;13191;47.472;11.214;2022-12-18T06:26:16;2.15;;;1.05;;
25247;SDS011;13191;47.472;11.214;2022-12-18T06:28:42;1.25;;;1.02;;
25247;SDS011;13191;47.472;11.214;2022-12-18T06:31:08;2.10;;;1.65;;
25247;SDS011;13191;47.472;11.214;2022-12-18T06:33:34;0.90;;;0.55;;
25247;SDS011;13191;47.472;11.214;2022-12-18T06:36:01;0.80;;;0.80;;
25247;SDS011;13191;47.472;11.214;2022-12-18T06:38:28;1.38;;;1.00;;
25247;SDS011;13191;47.472;11.214;2022-12-18T06:40:54;3.55;;;1.38;;
25247;SDS011;13191;47.472;11.214;2022-12-18T06:43:19;4.30;;;1.92;;
25247;SDS011;13191;47.472;11.214;2022-12-18T06:45:45;1.70;;;1.20;;
25247;SDS011;13191;47.472;11.214;2022-12-18T06:48:14;1.88;;;1.08;;
25247;SDS011;13191;47.472;11.214;2022-12-18T06:50:42;1.77;;;1.25;;
25247;SDS011;13191;47.472;11.214;2022-12-18T06:53:07;0.95;;;0.82;;
25247;SDS011;13191;47.472;11.214;2022-12-18T06:55:33;1.00;;;0.90;;
25247;SDS011;13191;47.472;11.214;2022-12-18T06:57:58;1.30;;;1.20;;
25247;SDS011;13191;47.472;11.214;2022-12-18T07:00:24;3.42;;;1.08;;
25247;SDS011;13191;47.472;11.214;2022-12-18T07:02:49;2.13;;;1.52;;
25247;SDS011;13191;47.472;11.214;2022-12-18T07:05:15;5.07;;;0.90;;
25247;SDS011;13191;47.472;11.214;2022-12-18T07:07:41;1.40;;;1.30;;
25247;SDS011;13191;47.472;11.214;2022-12-18T07:10:06;2.15;;;1.52;;
25247;SDS011;13191;47.472;11.214;2022-12-18T07:12:32;1.20;;;0.95;;
25247;SDS011;13191;47.472;11.214;2022-12-18T07:14:58;1.95;;;1.00;;
25247;SDS011;13191;47.472;11.214;2022-12-18T07:17:23;3.67;;;0.90;;
25247;SDS011;13191;47.472;11.214;2022-12-18T07:19:49;1.58;;;0.80;;
25247;SDS011;13191;47.472;11.214;2022-12-18T07:22:14;4.20;;;1.15;;
25247;SDS011;13191;47.472;11.214;2022-12-18T07:24:40;0.52;;;0.52;;
25247;SDS011;13191;47.472;11.214;2022-12-18T07:27:06;0.75;;;0.73;;
25247;SDS011;13191;47.472;11.214;2022-12-18T07:29:31;1.48;;;0.77;;
25247;SDS011;13191;47.472;11.214;2022-12-18T07:31:57;2.20;;;1.13;;
25247;SDS011;13191;47.472;11.214;2022-12-18T07:34:22;1.13;;;1.00;;
25247;SDS011;13191;47.472;11.214;2022-12-18T07:36:48;2.30;;;1.13;;
25247;SDS011;13191;47.472;11.214;2022-12-18T07:39:14;1.13;;;1.02;;
25247;SDS011;13191;47.472;11.214;2022-12-18T07:41:39;3.42;;;1.02;;
25247;SDS011;13191;47.472;11.214;2022-12-18T07:44:10;2.58;;;0.85;;
25247;SDS011;13191;47.472;11.214;2022-12-18T07:46:37;0.77;;;0.77;;
25247;SDS011;13191;47.472;11.214;2022-12-18T07:49:03;0.80;;;0.77;;
25247;SDS011;13191;47.472;11.214;2022-12-18T07:51:29;0.70;;;0.60;;
25247;SDS011;13191;47.472;11.214;2022-12-18T07:53:54;0.80;;;0.80;;
25247;SDS011;13191;47.472;11.214;2022-12-18T07:56:21;0.70;;;0.55;;
25247;SDS011;13191;47.472;11.214;2022-12-18T07:58:47;0.98;;;0.73;;
25247;SDS011;13191;47.472;11.214;2022-12-18T08:01:12;1.98;;;0.50;;
25247;SDS011;13191;47.472;11.214;2022-12-18T08:03:38;2.45;;;1.40;;
25247;SDS011;13191;47.472;11.214;2022-12-18T08:06:06;1.50;;;1.13;;
25247;SDS011;13191;47.472;11.214;2022-12-18T08:08:34;1.55;;;1.05;;
25247;SDS011;13191;47.472;11.214;2022-12-18T08:11:00;1.00;;;0.65;;
25247;SDS011;13191;47.472;11.214;2022-12-18T08:13:26;1.27;;;0.73;;
25247;SDS011;13191;47.472;11.214;2022-12-18T08:15:56;2.33;;;0.90;;
25247;SDS011;13191;47.472;11.214;2022-12-18T08:18:23;0.82;;;0.63;;
25247;SDS011;13191;47.472;11.214;2022-12-18T08:20:49;2.25;;;1.70;;
25247;SDS011;13191;47.472;11.214;2022-12-18T08:23:14;0.60;;;0.60;;
25247;SDS011;13191;47.472;11.214;2022-12-18T08:25:40;1.65;;;1.10;;
25247;SDS011;13191;47.472;11.214;2022-12-18T08:28:05;0.93;;;0.68;;
25247;SDS011;13191;47.472;11.214;2022-12-18T08:30:31;0.80;;;0.73;;
25247;SDS011;13191;47.472;11.214;2022-12-18T08:32:56;1.23;;;0.63;;
25247;SDS011;13191;47.472;11.214;2022-12-18T08:35:23;1.20;;;1.10;;
25247;SDS011;13191;47.472;11.214;2022-12-18T08:37:48;1.30;;;0.95;;
25247;SDS011;13191;47.472;11.214;2022-12-18T08:40:14;3.03;;;1.10;;
25247;SDS011;13191;47.472;11.214;2022-12-18T08:42:40;0.55;;;0.55;;
25247;SDS011;13191;47.472;11.214;2022-12-18T08:45:24;1.40;;;0.88;;
25247;SDS011;13191;47.472;11.214;2022-12-18T08:47:49;1.42;;;1.20;;
25247;SDS011;13191;47.472;11.214;2022-12-18T08:50:15;2.53;;;1.13;;
25247;SDS011;13191;47.472;11.214;2022-12-18T08:52:41;1.70;;;0.75;;
25247;SDS011;13191;47.472;11.214;2022-12-18T08:55:07;1.95;;;1.10;;
25247;SDS011;13191;47.472;11.214;2022-12-18T08:57:33;0.57;;;0.52;;
25247;SDS011;13191;47.472;11.214;2022-12-18T08:59:59;0.65;;;0.65;;
25247;SDS011;13191;47.472;11.214;2022-12-18T09:02:24;1.88;;;0.60;;
25247;SDS011;13191;47.472;11.214;2022-12-18T09:04:50;0.70;;;0.60;;
25247;SDS011;13191;47.472;11.214;2022-12-18T09:07:15;0.75;;;0.50;;
25247;SDS011;13191;47.472;11.214;2022-12-18T09:09:41;0.88;;;0.65;;
25247;SDS011;13191;47.472;11.214;2022-12-18T09:12:06;4.13;;;1.17;;
25247;SDS011;13191;47.472;11.214;2022-12-18T09:14:32;1.83;;;0.70;;
25247;SDS011;13191;47.472;11.214;2022-12-18T09:16:57;0.80;;;0.70;;
25247;SDS011;13191;47.472;11.214;2022-12-18T09:19:23;1.80;;;0.50;;
25247;SDS011;13191;47.472;11.214;2022-12-18T09:21:48;0.50;;;0.50;;
25247;SDS011;13191;47.472;11.214;2022-12-18T09:24:14;0.40;;;0.32;;
25247;SDS011;13191;47.472;11.214;2022-12-18T09:26:40;0.60;;;0.60;;
25247;SDS011;13191;47.472;11.214;2022-12-18T09:29:06;1.35;;;0.50;;
25247;SDS011;13191;47.472;11.214;2022-12-18T09:31:32;0.90;;;0.63;;
25247;SDS011;13191;47.472;11.214;2022-12-18T09:33:58;0.40;;;0.40;;
25247;SDS011;13191;47.472;11.214;2022-12-18T09:36:24;0.85;;;0.57;;
25247;SDS011;13191;47.472;11.214;2022-12-18T09:38:49;0.63;;;0.40;;
25247;SDS011;13191;47.472;11.214;2022-12-18T09:49:26;1.50;;;0.77;;
25247;SDS011;13191;47.472;11.214;2022-12-18T09:51:57;1.10;;;0.80;;
25247;SDS011;13191;47.472;11.214;2022-12-18T09:54:37;1.63;;;0.60;;
25247;SDS011;13191;47.472;11.214;2022-12-18T09:57:05;2.88;;;0.77;;
25247;SDS011;13191;47.472;11.214;2022-12-18T09:59:32;0.43;;;0.40;;
25247;SDS011;13191;47.472;11.214;2022-12-18T10:02:11;1.85;;;0.68;;
25247;SDS011;13191;47.472;11.214;2022-12-18T10:04:48;1.02;;;0.70;;
25247;SDS011;13191;47.472;11.214;2022-12-18T10:07:53;3.72;;;0.75;;
25247;SDS011;13191;47.472;11.214;2022-12-18T10:18:35;2.67;;;0.57;;
25247;SDS011;13191;47.472;11.214;2022-12-18T10:21:26;1.60;;;0.93;;
25247;SDS011;13191;47.472;11.214;2022-12-18T10:24:21;1.38;;;0.77;;
25247;SDS011;13191;47.472;11.214;2022-12-18T10:26:53;2.38;;;0.90;;
25247;SDS011;13191;47.472;11.214;2022-12-18T10:29:25;1.58;;;1.10;;
25247;SDS011;13191;47.472;11.214;2022-12-18T10:31:51;0.90;;;0.50;;
25247;SDS011;13191;47.472;11.214;2022-12-18T10:34:16;0.75;;;0.55;;
25247;SDS011;13191;47.472;11.214;2022-12-18T10:36:42;1.05;;;0.63;;
25247;SDS011;13191;47.472;11.214;2022-12-18T10:39:19;1.83;;;0.73;;
25247;SDS011;13191;47.472;11.214;2022-12-18T10:41:47;0.60;;;0.47;;
25247;SDS011;13191;47.472;11.214;2022-12-18T10:44:16;1.63;;;0.73;;
25247;SDS011;13191;47.472;11.214;2022-12-18T10:46:50;3.15;;;0.88;;
25247;SDS011;13191;47.472;11.214;2022-12-18T10:49:26;0.73;;;0.57;;
25247;SDS011;13191;47.472;11.214;2022-12-18T10:52:04;0.90;;;0.55;;
25247;SDS011;13191;47.472;11.214;2022-12-18T10:54:32;0.77;;;0.50;;
25247;SDS011;13191;47.472;11.214;2022-12-18T11:02:45;1.67;;;0.80;;
25247;SDS011;13191;47.472;11.214;2022-12-18T11:08:11;2.42;;;0.77;;
25247;SDS011;13191;47.472;11.214;2022-12-18T11:10:47;1.35;;;0.50;;
25247;SDS011;13191;47.472;11.214;2022-12-18T11:13:16;1.45;;;0.60;;
25247;SDS011;13191;47.472;11.214;2022-12-18T11:15:47;1.00;;;0.75;;
25247;SDS011;13191;47.472;11.214;2022-12-18T11:18:16;0.93;;;0.47;;
25247;SDS011;13191;47.472;11.214;2022-12-18T11:21:08;2.47;;;0.73;;
25247;SDS011;13191;47.472;11.214;2022-12-18T11:23:36;1.35;;;0.85;;
25247;SDS011;13191;47.472;11.214;2022-12-18T11:26:08;1.55;;;0.85;;
25247;SDS011;13191;47.472;11.214;2022-12-18T11:28:39;0.85;;;0.57;;
25247;SDS011;13191;47.472;11.214;2022-12-18T11:31:21;5.10;;;0.80;;
25247;SDS011;13191;47.472;11.214;2022-12-18T11:36:38;0.90;;;0.47;;
25247;SDS011;13191;47.472;11.214;2022-12-18T11:42:08;2.92;;;1.02;;
25247;SDS011;13191;47.472;11.214;2022-12-18T11:44:43;17.88;;;2.13;;
25247;SDS011;13191;47.472;11.214;2022-12-18T11:50:41;1.30;;;0.60;;
25247;SDS011;13191;47.472;11.214;2022-12-18T11:53:04;1.00;;;0.55;;
25247;SDS011;13191;47.472;11.214;2022-12-18T12:07:09;1.05;;;0.63;;
25247;SDS011;13191;47.472;11.214;2022-12-18T12:19:02;2.72;;;0.82;;
25247;SDS011;13191;47.472;11.214;2022-12-18T12:40:52;1.88;;;0.60;;
25247;SDS011;13191;47.472;11.214;2022-12-18T12:43:38;0.50;;;0.40;;
25247;SDS011;13191;47.472;11.214;2022-12-18T12:46:09;0.52;;;0.38;;
25247;SDS011;13191;47.472;11.214;2022-12-18T12:48:46;2.55;;;1.20;;
25247;SDS011;13191;47.472;11.214;2022-12-18T12:51:19;1.05;;;0.60;;
25247;SDS011;13191;47.472;11.214;2022-12-18T12:53:47;3.47;;;0.85;;
25247;SDS011;13191;47.472;11.214;2022-12-18T12:56:15;3.70;;;0.70;;
25247;SDS011;13191;47.472;11.214;2022-12-18T13:04:21;1.63;;;0.43;;
25247;SDS011;13191;47.472;11.214;2022-12-18T13:09:29;2.25;;;0.63;;
25247;SDS011;13191;47.472;11.214;2022-12-18T13:12:00;1.45;;;0.50;;
25247;SDS011;13191;47.472;11.214;2022-12-18T13:14:55;1.63;;;0.60;;
25247;SDS011;13191;47.472;11.214;2022-12-18T13:17:37;0.95;;;0.60;;
25247;SDS011;13191;47.472;11.214;2022-12-18T13:20:04;1.00;;;0.60;;
25247;SDS011;13191;47.472;11.214;2022-12-18T13:22:45;1.27;;;0.60;;
25247;SDS011;13191;47.472;11.214;2022-12-18T13:28:01;1.00;;;0.63;;
25247;SDS011;13191;47.472;11.214;2022-12-18T13:35:39;0.80;;;0.47;;
25247;SDS011;13191;47.472;11.214;2022-12-18T13:41:00;0.60;;;0.50;;
25247;SDS011;13191;47.472;11.214;2022-12-18T13:43:45;1.67;;;0.70;;
25247;SDS011;13191;47.472;11.214;2022-12-18T13:46:22;1.38;;;0.60;;
25247;SDS011;13191;47.472;11.214;2022-12-18T13:51:53;1.17;;;0.50;;
25247;SDS011;13191;47.472;11.214;2022-12-18T13:56:58;0.90;;;0.50;;
25247;SDS011;13191;47.472;11.214;2022-12-18T13:59:24;1.65;;;0.55;;
25247;SDS011;13191;47.472;11.214;2022-12-18T14:01:55;2.25;;;0.63;;
25247;SDS011;13191;47.472;11.214;2022-12-18T14:04:30;2.70;;;0.63;;
25247;SDS011;13191;47.472;11.214;2022-12-18T14:07:10;1.73;;;0.82;;
25247;SDS011;13191;47.472;11.214;2022-12-18T14:12:31;0.65;;;0.40;;
25247;SDS011;13191;47.472;11.214;2022-12-18T14:18:44;0.93;;;0.40;;
25247;SDS011;13191;47.472;11.214;2022-12-18T14:21:29;2.08;;;0.60;;
25247;SDS011;13191;47.472;11.214;2022-12-18T14:24:12;0.75;;;0.40;;
25247;SDS011;13191;47.472;11.214;2022-12-18T14:26:43;0.85;;;0.40;;
25247;SDS011;13191;47.472;11.214;2022-12-18T14:29:26;0.52;;;0.40;;
25247;SDS011;13191;47.472;11.214;2022-12-18T14:32:06;0.68;;;0.55;;
25247;SDS011;13191;47.472;11.214;2022-12-18T14:34:36;1.02;;;0.63;;
25247;SDS011;13191;47.472;11.214;2022-12-18T14:37:02;1.17;;;0.50;;
25247;SDS011;13191;47.472;11.214;2022-12-18T14:39:28;1.25;;;0.60;;
25247;SDS011;13191;47.472;11.214;2022-12-18T14:41:54;1.95;;;0.65;;
25247;SDS011;13191;47.472;11.214;2022-12-18T14:44:19;3.10;;;0.60;;
25247;SDS011;13191;47.472;11.214;2022-12-18T14:46:46;1.25;;;0.55;;
25247;SDS011;13191;47.472;11.214;2022-12-18T14:49:29;1.80;;;0.75;;
25247;SDS011;13191;47.472;11.214;2022-12-18T14:51:58;1.60;;;0.60;;
25247;SDS011;13191;47.472;11.214;2022-12-18T14:54:25;0.88;;;0.50;;
25247;SDS011;13191;47.472;11.214;2022-12-18T14:59:48;1.25;;;0.73;;
25247;SDS011;13191;47.472;11.214;2022-12-18T15:02:24;1.30;;;0.60;;
25247;SDS011;13191;47.472;11.214;2022-12-18T15:05:05;1.35;;;0.68;;
25247;SDS011;13191;47.472;11.214;2022-12-18T15:07:40;1.40;;;0.50;;
25247;SDS011;13191;47.472;11.214;2022-12-18T15:12:38;1.05;;;0.60;;
25247;SDS011;13191;47.472;11.214;2022-12-18T15:20:54;1.65;;;0.60;;
25247;SDS011;13191;47.472;11.214;2022-12-18T15:23:23;1.15;;;0.63;;
25247;SDS011;13191;47.472;11.214;2022-12-18T15:31:00;1.42;;;0.57;;
25247;SDS011;13191;47.472;11.214;2022-12-18T15:36:17;6.70;;;0.90;;
25247;SDS011;13191;47.472;11.214;2022-12-18T15:38:47;3.05;;;0.90;;
25247;SDS011;13191;47.472;11.214;2022-12-18T15:41:16;2.17;;;0.65;;
25247;SDS011;13191;47.472;11.214;2022-12-18T15:43:44;1.20;;;0.55;;
25247;SDS011;13191;47.472;11.214;2022-12-18T15:46:12;2.60;;;0.68;;
25247;SDS011;13191;47.472;11.214;2022-12-18T15:48:40;0.82;;;0.50;;
25247;SDS011;13191;47.472;11.214;2022-12-18T15:51:14;1.17;;;0.55;;
25247;SDS011;13191;47.472;11.214;2022-12-18T15:53:48;1.17;;;0.40;;
25247;SDS011;13191;47.472;11.214;2022-12-18T15:56:17;1.00;;;0.60;;
25247;SDS011;13191;47.472;11.214;2022-12-18T15:59:01;1.95;;;0.80;;
25247;SDS011;13191;47.472;11.214;2022-12-18T16:01:28;1.02;;;0.80;;
25247;SDS011;13191;47.472;11.214;2022-12-18T16:03:55;0.85;;;0.60;;
25247;SDS011;13191;47.472;11.214;2022-12-18T16:06:21;1.17;;;0.68;;
25247;SDS011;13191;47.472;11.214;2022-12-18T16:08:47;2.42;;;0.68;;
25247;SDS011;13191;47.472;11.214;2022-12-18T16:11:19;0.47;;;0.43;;
25247;SDS011;13191;47.472;11.214;2022-12-18T16:16:45;4.72;;;0.65;;
25247;SDS011;13191;47.472;11.214;2022-12-18T16:19:12;1.55;;;0.82;;
25247;SDS011;13191;47.472;11.214;2022-12-18T16:21:37;2.58;;;0.95;;
25247;SDS011;13191;47.472;11.214;2022-12-18T16:24:03;2.58;;;0.90;;
25247;SDS011;13191;47.472;11.214;2022-12-18T16:26:29;2.15;;;0.60;;
25247;SDS011;13191;47.472;11.214;2022-12-18T16:28:54;1.77;;;0.80;;
25247;SDS011;13191;47.472;11.214;2022-12-18T16:31:20;0.77;;;0.32;;
25247;SDS011;13191;47.472;11.214;2022-12-18T16:33:45;1.38;;;0.60;;
25247;SDS011;13191;47.472;11.214;2022-12-18T16:36:11;3.55;;;1.17;;
25247;SDS011;13191;47.472;11.214;2022-12-18T16:38:37;0.98;;;0.50;;
25247;SDS011;13191;47.472;11.214;2022-12-18T16:41:04;1.13;;;0.63;;
25247;SDS011;13191;47.472;11.214;2022-12-18T16:43:58;2.65;;;0.60;;
25247;SDS011;13191;47.472;11.214;2022-12-18T16:46:24;2.78;;;0.60;;
25247;SDS011;13191;47.472;11.214;2022-12-18T16:48:50;0.52;;;0.40;;
25247;SDS011;13191;47.472;11.214;2022-12-18T16:51:16;3.30;;;0.60;;
25247;SDS011;13191;47.472;11.214;2022-12-18T16:53:41;1.60;;;0.70;;
25247;SDS011;13191;47.472;11.214;2022-12-18T16:56:07;0.90;;;0.50;;
25247;SDS011;13191;47.472;11.214;2022-12-18T16:58:32;1.45;;;0.88;;
25247;SDS011;13191;47.472;11.214;2022-12-18T17:00:58;2.65;;;0.60;;
25247;SDS011;13191;47.472;11.214;2022-12-18T17:03:25;0.55;;;0.30;;
25247;SDS011;13191;47.472;11.214;2022-12-18T17:05:51;0.65;;;0.40;;
25247;SDS011;13191;47.472;11.214;2022-12-18T17:08:17;0.52;;;0.43;;
25247;SDS011;13191;47.472;11.214;2022-12-18T17:10:43;1.23;;;0.60;;
25247;SDS011;13191;47.472;11.214;2022-12-18T17:13:09;2.58;;;0.65;;
25247;SDS011;13191;47.472;11.214;2022-12-18T17:15:36;1.35;;;0.57;;
25247;SDS011;13191;47.472;11.214;2022-12-18T17:18:02;1.17;;;0.75;;
25247;SDS011;13191;47.472;11.214;2022-12-18T17:20:31;0.90;;;0.47;;
25247;SDS011;13191;47.472;11.214;2022-12-18T17:22:57;5.07;;;1.08;;
25247;SDS011;13191;47.472;11.214;2022-12-18T17:25:23;9.02;;;1.67;;
25247;SDS011;13191;47.472;11.214;2022-12-18T17:27:49;2.95;;;1.00;;
25247;SDS011;13191;47.472;11.214;2022-12-18T17:30:16;4.05;;;1.40;;
25247;SDS011;13191;47.472;11.214;2022-12-18T17:32:42;11.80;;;2.22;;